sensor_id;sensor_type;location;lat;lon;timestamp;P1;durP1;ratioP1;P2;durP2;ratioP2
53833;SDS011;39735;51.432;5.482;2023-06-24T00:01:43;9.55;;;8.75;;
53833;SDS011;39735;51.432;5.482;2023-06-24T00:04:08;12.00;;;9.55;;
53833;SDS011;39735;51.432;5.482;2023-06-24T00:06:34;20.13;;;11.07;;
53833;SDS011;39735;51.432;5.482;2023-06-24T00:08:59;15.87;;;9.97;;
53833;SDS011;39735;51.432;5.482;2023-06-24T00:11:28;11.90;;;10.63;;
53833;SDS011;39735;51.432;5.482;2023-06-24T00:13:54;13.50;;;9.50;;
53833;SDS011;39735;51.432;5.482;2023-06-24T00:16:20;12.07;;;10.23;;
53833;SDS011;39735;51.432;5.482;2023-06-24T00:18:55;13.35;;;10.00;;
53833;SDS011;39735;51.432;5.482;2023-06-24T00:21:27;18.83;;;10.82;;
53833;SDS011;39735;51.432;5.482;2023-06-24T00:23:57;10.93;;;8.73;;
53833;SDS011;39735;51.432;5.482;2023-06-24T00:26:24;18.15;;;10.32;;
53833;SDS011;39735;51.432;5.482;2023-06-24T00:28:54;16.13;;;10.27;;
53833;SDS011;39735;51.432;5.482;2023-06-24T00:31:19;13.15;;;9.52;;
53833;SDS011;39735;51.432;5.482;2023-06-24T00:33:45;18.17;;;10.95;;
53833;SDS011;39735;51.432;5.482;2023-06-24T00:36:10;10.73;;;9.48;;
53833;SDS011;39735;51.432;5.482;2023-06-24T00:38:36;12.65;;;8.77;;
53833;SDS011;39735;51.432;5.482;2023-06-24T00:41:02;11.43;;;9.63;;
53833;SDS011;39735;51.432;5.482;2023-06-24T00:43:27;9.70;;;8.50;;
53833;SDS011;39735;51.432;5.482;2023-06-24T00:45:54;11.60;;;9.73;;
53833;SDS011;39735;51.432;5.482;2023-06-24T00:48:20;11.20;;;9.65;;
53833;SDS011;39735;51.432;5.482;2023-06-24T00:50:46;14.05;;;10.32;;
53833;SDS011;39735;51.432;5.482;2023-06-24T00:53:12;14.45;;;11.65;;
53833;SDS011;39735;51.432;5.482;2023-06-24T00:55:37;14.63;;;9.67;;
53833;SDS011;39735;51.432;5.482;2023-06-24T00:58:02;18.80;;;10.00;;
53833;SDS011;39735;51.432;5.482;2023-06-24T01:00:28;15.60;;;12.85;;
53833;SDS011;39735;51.432;5.482;2023-06-24T01:02:53;18.42;;;12.27;;
53833;SDS011;39735;51.432;5.482;2023-06-24T01:05:19;20.95;;;10.52;;
53833;SDS011;39735;51.432;5.482;2023-06-24T01:07:48;13.82;;;10.43;;
53833;SDS011;39735;51.432;5.482;2023-06-24T01:10:20;21.15;;;9.18;;
53833;SDS011;39735;51.432;5.482;2023-06-24T01:12:45;9.63;;;8.32;;
53833;SDS011;39735;51.432;5.482;2023-06-24T01:15:10;8.43;;;7.18;;
53833;SDS011;39735;51.432;5.482;2023-06-24T01:17:43;11.35;;;9.65;;
53833;SDS011;39735;51.432;5.482;2023-06-24T01:20:17;18.25;;;7.65;;
53833;SDS011;39735;51.432;5.482;2023-06-24T01:28:12;16.73;;;7.00;;
53833;SDS011;39735;51.432;5.482;2023-06-24T01:30:42;7.80;;;6.18;;
53833;SDS011;39735;51.432;5.482;2023-06-24T01:33:15;7.63;;;6.90;;
53833;SDS011;39735;51.432;5.482;2023-06-24T01:35:44;11.25;;;6.55;;
53833;SDS011;39735;51.432;5.482;2023-06-24T01:38:24;8.90;;;5.95;;
53833;SDS011;39735;51.432;5.482;2023-06-24T01:40:52;8.05;;;5.68;;
53833;SDS011;39735;51.432;5.482;2023-06-24T01:43:18;10.07;;;7.05;;
53833;SDS011;39735;51.432;5.482;2023-06-24T01:45:47;6.63;;;6.03;;
53833;SDS011;39735;51.432;5.482;2023-06-24T01:48:15;9.85;;;6.43;;
53833;SDS011;39735;51.432;5.482;2023-06-24T01:50:44;10.10;;;6.57;;
53833;SDS011;39735;51.432;5.482;2023-06-24T01:53:09;8.40;;;6.00;;
53833;SDS011;39735;51.432;5.482;2023-06-24T01:55:36;12.82;;;6.07;;
53833;SDS011;39735;51.432;5.482;2023-06-24T01:58:02;19.40;;;7.30;;
53833;SDS011;39735;51.432;5.482;2023-06-24T02:00:31;10.48;;;6.65;;
53833;SDS011;39735;51.432;5.482;2023-06-24T02:02:57;13.73;;;7.32;;
53833;SDS011;39735;51.432;5.482;2023-06-24T02:05:22;9.43;;;6.43;;
53833;SDS011;39735;51.432;5.482;2023-06-24T02:07:51;18.67;;;7.03;;
53833;SDS011;39735;51.432;5.482;2023-06-24T02:10:17;11.07;;;7.00;;
53833;SDS011;39735;51.432;5.482;2023-06-24T02:15:16;7.85;;;7.07;;
53833;SDS011;39735;51.432;5.482;2023-06-24T02:17:44;12.50;;;7.63;;
53833;SDS011;39735;51.432;5.482;2023-06-24T02:20:11;7.85;;;7.05;;
53833;SDS011;39735;51.432;5.482;2023-06-24T02:22:41;14.35;;;6.88;;
53833;SDS011;39735;51.432;5.482;2023-06-24T02:25:06;13.20;;;7.57;;
53833;SDS011;39735;51.432;5.482;2023-06-24T02:27:33;9.10;;;8.10;;
53833;SDS011;39735;51.432;5.482;2023-06-24T02:30:00;15.65;;;7.97;;
53833;SDS011;39735;51.432;5.482;2023-06-24T02:32:25;7.32;;;6.68;;
53833;SDS011;39735;51.432;5.482;2023-06-24T02:34:51;11.00;;;7.43;;
53833;SDS011;39735;51.432;5.482;2023-06-24T02:37:16;19.25;;;7.90;;
53833;SDS011;39735;51.432;5.482;2023-06-24T02:39:41;19.00;;;8.93;;
53833;SDS011;39735;51.432;5.482;2023-06-24T02:42:10;17.15;;;6.90;;
53833;SDS011;39735;51.432;5.482;2023-06-24T02:44:35;7.45;;;6.75;;
53833;SDS011;39735;51.432;5.482;2023-06-24T02:47:00;18.58;;;7.93;;
53833;SDS011;39735;51.432;5.482;2023-06-24T02:49:25;9.98;;;7.07;;
53833;SDS011;39735;51.432;5.482;2023-06-24T02:51:51;12.45;;;6.10;;
53833;SDS011;39735;51.432;5.482;2023-06-24T02:54:17;14.52;;;7.07;;
53833;SDS011;39735;51.432;5.482;2023-06-24T02:56:42;13.57;;;7.43;;
53833;SDS011;39735;51.432;5.482;2023-06-24T02:59:09;12.85;;;6.53;;
53833;SDS011;39735;51.432;5.482;2023-06-24T03:01:35;9.05;;;7.97;;
53833;SDS011;39735;51.432;5.482;2023-06-24T03:04:04;13.25;;;6.93;;
53833;SDS011;39735;51.432;5.482;2023-06-24T03:06:29;12.40;;;7.68;;
53833;SDS011;39735;51.432;5.482;2023-06-24T03:08:56;13.80;;;6.80;;
53833;SDS011;39735;51.432;5.482;2023-06-24T03:11:22;15.40;;;6.95;;
53833;SDS011;39735;51.432;5.482;2023-06-24T03:13:47;8.83;;;7.00;;
53833;SDS011;39735;51.432;5.482;2023-06-24T03:16:12;11.50;;;7.32;;
53833;SDS011;39735;51.432;5.482;2023-06-24T03:18:40;11.80;;;7.90;;
53833;SDS011;39735;51.432;5.482;2023-06-24T03:21:05;11.00;;;7.18;;
53833;SDS011;39735;51.432;5.482;2023-06-24T03:23:31;14.20;;;8.50;;
53833;SDS011;39735;51.432;5.482;2023-06-24T03:25:56;15.13;;;8.30;;
53833;SDS011;39735;51.432;5.482;2023-06-24T03:28:21;11.47;;;7.80;;
53833;SDS011;39735;51.432;5.482;2023-06-24T03:30:46;16.30;;;8.37;;
53833;SDS011;39735;51.432;5.482;2023-06-24T03:33:12;20.02;;;7.82;;
53833;SDS011;39735;51.432;5.482;2023-06-24T03:35:45;10.57;;;8.43;;
53833;SDS011;39735;51.432;5.482;2023-06-24T03:38:10;11.07;;;9.48;;
53833;SDS011;39735;51.432;5.482;2023-06-24T03:40:36;14.38;;;10.48;;
53833;SDS011;39735;51.432;5.482;2023-06-24T03:43:01;10.07;;;8.27;;
53833;SDS011;39735;51.432;5.482;2023-06-24T03:45:27;13.63;;;10.30;;
53833;SDS011;39735;51.432;5.482;2023-06-24T03:47:52;13.97;;;9.37;;
53833;SDS011;39735;51.432;5.482;2023-06-24T03:50:17;19.00;;;10.10;;
53833;SDS011;39735;51.432;5.482;2023-06-24T03:52:42;9.40;;;8.43;;
53833;SDS011;39735;51.432;5.482;2023-06-24T03:55:09;11.75;;;9.80;;
53833;SDS011;39735;51.432;5.482;2023-06-24T03:57:34;9.18;;;8.18;;
53833;SDS011;39735;51.432;5.482;2023-06-24T03:59:59;14.00;;;8.88;;
53833;SDS011;39735;51.432;5.482;2023-06-24T04:02:25;9.93;;;8.43;;
53833;SDS011;39735;51.432;5.482;2023-06-24T04:04:51;10.07;;;9.07;;
53833;SDS011;39735;51.432;5.482;2023-06-24T04:07:17;12.63;;;10.20;;
53833;SDS011;39735;51.432;5.482;2023-06-24T04:09:53;15.15;;;9.73;;
53833;SDS011;39735;51.432;5.482;2023-06-24T04:12:19;13.77;;;10.80;;
53833;SDS011;39735;51.432;5.482;2023-06-24T04:14:44;16.85;;;11.27;;
53833;SDS011;39735;51.432;5.482;2023-06-24T04:17:09;11.47;;;9.70;;
53833;SDS011;39735;51.432;5.482;2023-06-24T04:19:35;11.33;;;10.13;;
53833;SDS011;39735;51.432;5.482;2023-06-24T04:22:00;20.67;;;10.70;;
53833;SDS011;39735;51.432;5.482;2023-06-24T04:24:25;11.43;;;9.30;;
53833;SDS011;39735;51.432;5.482;2023-06-24T04:26:50;18.73;;;13.63;;
53833;SDS011;39735;51.432;5.482;2023-06-24T04:29:16;23.05;;;10.60;;
53833;SDS011;39735;51.432;5.482;2023-06-24T04:31:41;13.98;;;11.77;;
53833;SDS011;39735;51.432;5.482;2023-06-24T04:34:06;28.10;;;11.60;;
53833;SDS011;39735;51.432;5.482;2023-06-24T04:36:31;16.77;;;12.02;;
53833;SDS011;39735;51.432;5.482;2023-06-24T04:38:57;18.88;;;14.00;;
53833;SDS011;39735;51.432;5.482;2023-06-24T04:41:22;18.05;;;12.75;;
53833;SDS011;39735;51.432;5.482;2023-06-24T04:43:47;15.23;;;12.33;;
53833;SDS011;39735;51.432;5.482;2023-06-24T04:46:13;17.67;;;12.77;;
53833;SDS011;39735;51.432;5.482;2023-06-24T04:48:38;18.50;;;12.80;;
53833;SDS011;39735;51.432;5.482;2023-06-24T04:51:03;26.90;;;13.40;;
53833;SDS011;39735;51.432;5.482;2023-06-24T04:53:28;16.27;;;12.50;;
53833;SDS011;39735;51.432;5.482;2023-06-24T04:55:54;15.13;;;12.55;;
53833;SDS011;39735;51.432;5.482;2023-06-24T04:58:19;17.55;;;12.88;;
53833;SDS011;39735;51.432;5.482;2023-06-24T05:00:44;20.33;;;12.00;;
53833;SDS011;39735;51.432;5.482;2023-06-24T05:03:10;21.70;;;13.68;;
53833;SDS011;39735;51.432;5.482;2023-06-24T05:05:35;16.33;;;12.30;;
53833;SDS011;39735;51.432;5.482;2023-06-24T05:08:00;22.93;;;12.70;;
53833;SDS011;39735;51.432;5.482;2023-06-24T05:10:25;24.30;;;14.20;;
53833;SDS011;39735;51.432;5.482;2023-06-24T05:12:51;26.20;;;13.67;;
53833;SDS011;39735;51.432;5.482;2023-06-24T05:15:16;30.02;;;14.80;;
53833;SDS011;39735;51.432;5.482;2023-06-24T05:17:41;19.20;;;13.45;;
53833;SDS011;39735;51.432;5.482;2023-06-24T05:20:07;18.02;;;13.20;;
53833;SDS011;39735;51.432;5.482;2023-06-24T05:22:32;23.30;;;14.30;;
53833;SDS011;39735;51.432;5.482;2023-06-24T05:24:58;20.77;;;13.93;;
53833;SDS011;39735;51.432;5.482;2023-06-24T05:27:23;18.63;;;13.95;;
53833;SDS011;39735;51.432;5.482;2023-06-24T05:29:48;19.42;;;14.27;;
53833;SDS011;39735;51.432;5.482;2023-06-24T05:32:14;17.13;;;12.35;;
53833;SDS011;39735;51.432;5.482;2023-06-24T05:34:39;22.60;;;12.52;;
53833;SDS011;39735;51.432;5.482;2023-06-24T05:37:04;16.77;;;13.98;;
53833;SDS011;39735;51.432;5.482;2023-06-24T05:39:30;21.40;;;12.80;;
53833;SDS011;39735;51.432;5.482;2023-06-24T05:41:55;18.52;;;12.43;;
53833;SDS011;39735;51.432;5.482;2023-06-24T05:44:21;32.80;;;14.77;;
53833;SDS011;39735;51.432;5.482;2023-06-24T05:46:47;15.23;;;11.00;;
53833;SDS011;39735;51.432;5.482;2023-06-24T05:49:12;13.80;;;10.63;;
53833;SDS011;39735;51.432;5.482;2023-06-24T05:51:38;19.55;;;11.95;;
53833;SDS011;39735;51.432;5.482;2023-06-24T05:54:03;26.27;;;12.07;;
53833;SDS011;39735;51.432;5.482;2023-06-24T05:56:28;15.38;;;10.40;;
53833;SDS011;39735;51.432;5.482;2023-06-24T05:58:54;15.02;;;8.60;;
53833;SDS011;39735;51.432;5.482;2023-06-24T06:01:19;14.23;;;11.52;;
53833;SDS011;39735;51.432;5.482;2023-06-24T06:03:44;10.00;;;8.93;;
53833;SDS011;39735;51.432;5.482;2023-06-24T06:06:10;14.05;;;8.73;;
53833;SDS011;39735;51.432;5.482;2023-06-24T06:08:35;10.82;;;9.05;;
53833;SDS011;39735;51.432;5.482;2023-06-24T06:11:00;19.65;;;12.68;;
53833;SDS011;39735;51.432;5.482;2023-06-24T06:13:29;10.25;;;8.25;;
53833;SDS011;39735;51.432;5.482;2023-06-24T06:15:55;12.60;;;9.60;;
53833;SDS011;39735;51.432;5.482;2023-06-24T06:18:20;14.43;;;8.70;;
53833;SDS011;39735;51.432;5.482;2023-06-24T06:20:45;16.47;;;7.93;;
53833;SDS011;39735;51.432;5.482;2023-06-24T06:23:10;7.80;;;7.00;;
53833;SDS011;39735;51.432;5.482;2023-06-24T06:25:36;11.87;;;8.73;;
53833;SDS011;39735;51.432;5.482;2023-06-24T06:28:03;8.55;;;7.47;;
53833;SDS011;39735;51.432;5.482;2023-06-24T06:30:28;8.98;;;8.20;;
53833;SDS011;39735;51.432;5.482;2023-06-24T06:32:53;9.83;;;8.67;;
53833;SDS011;39735;51.432;5.482;2023-06-24T06:35:18;7.03;;;6.43;;
53833;SDS011;39735;51.432;5.482;2023-06-24T06:37:44;12.47;;;8.10;;
53833;SDS011;39735;51.432;5.482;2023-06-24T06:40:11;12.32;;;7.95;;
53833;SDS011;39735;51.432;5.482;2023-06-24T06:42:36;21.38;;;7.38;;
53833;SDS011;39735;51.432;5.482;2023-06-24T06:45:02;7.27;;;6.30;;
53833;SDS011;39735;51.432;5.482;2023-06-24T06:47:27;13.77;;;6.45;;
53833;SDS011;39735;51.432;5.482;2023-06-24T06:49:53;11.50;;;5.87;;
53833;SDS011;39735;51.432;5.482;2023-06-24T06:52:18;12.73;;;6.50;;
53833;SDS011;39735;51.432;5.482;2023-06-24T06:54:43;7.53;;;5.55;;
53833;SDS011;39735;51.432;5.482;2023-06-24T06:57:09;12.27;;;5.30;;
53833;SDS011;39735;51.432;5.482;2023-06-24T06:59:34;7.63;;;4.90;;
53833;SDS011;39735;51.432;5.482;2023-06-24T07:01:59;16.55;;;5.30;;
53833;SDS011;39735;51.432;5.482;2023-06-24T07:04:25;19.80;;;6.18;;
53833;SDS011;39735;51.432;5.482;2023-06-24T07:06:50;12.30;;;4.82;;
53833;SDS011;39735;51.432;5.482;2023-06-24T07:09:15;9.05;;;4.45;;
53833;SDS011;39735;51.432;5.482;2023-06-24T07:11:41;7.45;;;4.85;;
53833;SDS011;39735;51.432;5.482;2023-06-24T07:14:06;8.27;;;4.97;;
53833;SDS011;39735;51.432;5.482;2023-06-24T07:16:32;4.80;;;4.00;;
53833;SDS011;39735;51.432;5.482;2023-06-24T07:18:57;27.38;;;5.25;;
53833;SDS011;39735;51.432;5.482;2023-06-24T07:21:22;5.70;;;3.93;;
53833;SDS011;39735;51.432;5.482;2023-06-24T07:23:48;3.28;;;2.97;;
53833;SDS011;39735;51.432;5.482;2023-06-24T07:26:13;5.25;;;3.55;;
53833;SDS011;39735;51.432;5.482;2023-06-24T07:28:38;8.00;;;3.60;;
53833;SDS011;39735;51.432;5.482;2023-06-24T07:31:03;8.37;;;5.23;;
53833;SDS011;39735;51.432;5.482;2023-06-24T07:33:29;5.15;;;3.17;;
53833;SDS011;39735;51.432;5.482;2023-06-24T07:35:55;3.35;;;3.05;;
53833;SDS011;39735;51.432;5.482;2023-06-24T07:38:21;5.28;;;3.50;;
53833;SDS011;39735;51.432;5.482;2023-06-24T07:40:46;7.30;;;3.83;;
53833;SDS011;39735;51.432;5.482;2023-06-24T07:43:11;20.50;;;3.13;;
53833;SDS011;39735;51.432;5.482;2023-06-24T07:45:36;3.90;;;3.13;;
53833;SDS011;39735;51.432;5.482;2023-06-24T07:48:01;3.17;;;2.72;;
53833;SDS011;39735;51.432;5.482;2023-06-24T07:50:27;2.58;;;2.47;;
53833;SDS011;39735;51.432;5.482;2023-06-24T07:52:52;3.38;;;3.13;;
53833;SDS011;39735;51.432;5.482;2023-06-24T07:55:17;2.90;;;2.70;;
53833;SDS011;39735;51.432;5.482;2023-06-24T07:57:46;22.50;;;3.77;;
53833;SDS011;39735;51.432;5.482;2023-06-24T08:00:11;3.78;;;3.47;;
53833;SDS011;39735;51.432;5.482;2023-06-24T08:02:37;4.45;;;3.00;;
53833;SDS011;39735;51.432;5.482;2023-06-24T08:05:02;4.93;;;2.83;;
53833;SDS011;39735;51.432;5.482;2023-06-24T08:07:27;7.75;;;3.30;;
53833;SDS011;39735;51.432;5.482;2023-06-24T08:09:53;12.30;;;2.75;;
53833;SDS011;39735;51.432;5.482;2023-06-24T08:12:18;12.80;;;3.53;;
53833;SDS011;39735;51.432;5.482;2023-06-24T08:14:43;12.80;;;3.37;;
53833;SDS011;39735;51.432;5.482;2023-06-24T08:17:08;8.13;;;2.73;;
53833;SDS011;39735;51.432;5.482;2023-06-24T08:19:34;2.30;;;2.20;;
53833;SDS011;39735;51.432;5.482;2023-06-24T08:21:59;10.63;;;3.83;;
53833;SDS011;39735;51.432;5.482;2023-06-24T08:24:24;3.15;;;2.28;;
53833;SDS011;39735;51.432;5.482;2023-06-24T08:26:49;3.47;;;3.17;;
53833;SDS011;39735;51.432;5.482;2023-06-24T08:29:15;4.80;;;3.33;;
53833;SDS011;39735;51.432;5.482;2023-06-24T08:31:40;5.43;;;3.05;;
53833;SDS011;39735;51.432;5.482;2023-06-24T08:34:05;9.52;;;2.97;;
53833;SDS011;39735;51.432;5.482;2023-06-24T08:36:34;5.85;;;1.85;;
53833;SDS011;39735;51.432;5.482;2023-06-24T08:38:59;2.22;;;2.03;;
53833;SDS011;39735;51.432;5.482;2023-06-24T08:41:24;3.13;;;3.03;;
53833;SDS011;39735;51.432;5.482;2023-06-24T08:43:50;3.83;;;2.67;;
53833;SDS011;39735;51.432;5.482;2023-06-24T08:46:15;1.55;;;1.52;;
53833;SDS011;39735;51.432;5.482;2023-06-24T08:48:41;3.95;;;2.15;;
53833;SDS011;39735;51.432;5.482;2023-06-24T08:51:08;1.95;;;1.65;;
53833;SDS011;39735;51.432;5.482;2023-06-24T08:53:34;2.47;;;2.38;;
53833;SDS011;39735;51.432;5.482;2023-06-24T08:55:59;1.92;;;1.90;;
53833;SDS011;39735;51.432;5.482;2023-06-24T08:58:25;4.20;;;2.42;;
53833;SDS011;39735;51.432;5.482;2023-06-24T09:00:50;8.57;;;1.25;;
53833;SDS011;39735;51.432;5.482;2023-06-24T09:03:16;5.95;;;2.88;;
53833;SDS011;39735;51.432;5.482;2023-06-24T09:05:41;2.93;;;1.60;;
53833;SDS011;39735;51.432;5.482;2023-06-24T09:08:06;1.47;;;1.40;;
53833;SDS011;39735;51.432;5.482;2023-06-24T09:10:32;9.70;;;2.60;;
53833;SDS011;39735;51.432;5.482;2023-06-24T09:12:58;3.63;;;2.13;;
53833;SDS011;39735;51.432;5.482;2023-06-24T09:15:23;1.95;;;1.85;;
53833;SDS011;39735;51.432;5.482;2023-06-24T09:17:49;15.77;;;2.30;;
53833;SDS011;39735;51.432;5.482;2023-06-24T09:20:14;6.40;;;2.53;;
53833;SDS011;39735;51.432;5.482;2023-06-24T09:22:42;8.02;;;1.77;;
53833;SDS011;39735;51.432;5.482;2023-06-24T09:25:08;2.83;;;2.63;;
53833;SDS011;39735;51.432;5.482;2023-06-24T09:27:34;18.35;;;2.75;;
53833;SDS011;39735;51.432;5.482;2023-06-24T09:29:59;8.88;;;2.20;;
53833;SDS011;39735;51.432;5.482;2023-06-24T09:32:30;13.85;;;1.40;;
53833;SDS011;39735;51.432;5.482;2023-06-24T09:34:56;17.23;;;3.88;;
53833;SDS011;39735;51.432;5.482;2023-06-24T09:37:21;13.85;;;2.58;;
53833;SDS011;39735;51.432;5.482;2023-06-24T09:39:48;9.05;;;2.08;;
53833;SDS011;39735;51.432;5.482;2023-06-24T09:42:13;2.53;;;1.83;;
53833;SDS011;39735;51.432;5.482;2023-06-24T09:44:38;7.95;;;1.63;;
53833;SDS011;39735;51.432;5.482;2023-06-24T09:47:04;1.50;;;1.42;;
53833;SDS011;39735;51.432;5.482;2023-06-24T09:49:29;13.25;;;2.28;;
53833;SDS011;39735;51.432;5.482;2023-06-24T09:51:58;2.88;;;1.38;;
53833;SDS011;39735;51.432;5.482;2023-06-24T09:54:28;3.60;;;1.67;;
53833;SDS011;39735;51.432;5.482;2023-06-24T09:56:54;4.18;;;2.45;;
53833;SDS011;39735;51.432;5.482;2023-06-24T09:59:19;13.80;;;1.85;;
53833;SDS011;39735;51.432;5.482;2023-06-24T10:01:45;11.52;;;1.75;;
53833;SDS011;39735;51.432;5.482;2023-06-24T10:04:13;1.92;;;1.92;;
53833;SDS011;39735;51.432;5.482;2023-06-24T10:06:40;9.38;;;1.73;;
53833;SDS011;39735;51.432;5.482;2023-06-24T10:09:05;1.87;;;1.77;;
53833;SDS011;39735;51.432;5.482;2023-06-24T10:11:30;7.45;;;1.83;;
53833;SDS011;39735;51.432;5.482;2023-06-24T10:13:55;5.93;;;1.20;;
53833;SDS011;39735;51.432;5.482;2023-06-24T10:16:21;10.30;;;2.30;;
53833;SDS011;39735;51.432;5.482;2023-06-24T10:18:46;5.03;;;1.85;;
53833;SDS011;39735;51.432;5.482;2023-06-24T10:21:12;3.95;;;1.80;;
53833;SDS011;39735;51.432;5.482;2023-06-24T10:26:09;4.68;;;1.80;;
53833;SDS011;39735;51.432;5.482;2023-06-24T10:31:19;3.30;;;3.20;;
53833;SDS011;39735;51.432;5.482;2023-06-24T10:33:52;1.95;;;1.85;;
53833;SDS011;39735;51.432;5.482;2023-06-24T10:36:32;4.70;;;1.50;;
53833;SDS011;39735;51.432;5.482;2023-06-24T10:38:58;5.65;;;2.28;;
53833;SDS011;39735;51.432;5.482;2023-06-24T10:41:23;18.13;;;2.67;;
53833;SDS011;39735;51.432;5.482;2023-06-24T10:43:50;1.55;;;1.45;;
53833;SDS011;39735;51.432;5.482;2023-06-24T10:46:15;4.80;;;2.07;;
53833;SDS011;39735;51.432;5.482;2023-06-24T10:48:41;7.88;;;1.90;;
53833;SDS011;39735;51.432;5.482;2023-06-24T10:51:06;2.57;;;1.47;;
53833;SDS011;39735;51.432;5.482;2023-06-24T10:53:31;8.75;;;2.00;;
53833;SDS011;39735;51.432;5.482;2023-06-24T10:55:57;2.53;;;2.42;;
53833;SDS011;39735;51.432;5.482;2023-06-24T10:58:23;1.98;;;1.88;;
53833;SDS011;39735;51.432;5.482;2023-06-24T11:00:48;11.40;;;3.50;;
53833;SDS011;39735;51.432;5.482;2023-06-24T11:03:16;12.50;;;3.03;;
53833;SDS011;39735;51.432;5.482;2023-06-24T11:05:42;3.97;;;2.78;;
53833;SDS011;39735;51.432;5.482;2023-06-24T11:08:08;6.97;;;3.03;;
53833;SDS011;39735;51.432;5.482;2023-06-24T11:10:33;2.60;;;2.40;;
53833;SDS011;39735;51.432;5.482;2023-06-24T11:13:06;4.63;;;2.58;;
53833;SDS011;39735;51.432;5.482;2023-06-24T11:15:32;7.60;;;2.37;;
53833;SDS011;39735;51.432;5.482;2023-06-24T11:17:57;1.92;;;1.75;;
53833;SDS011;39735;51.432;5.482;2023-06-24T11:20:22;5.13;;;2.30;;
53833;SDS011;39735;51.432;5.482;2023-06-24T11:22:48;18.05;;;2.65;;
53833;SDS011;39735;51.432;5.482;2023-06-24T11:25:17;2.35;;;2.15;;
53833;SDS011;39735;51.432;5.482;2023-06-24T11:27:43;3.13;;;2.03;;
53833;SDS011;39735;51.432;5.482;2023-06-24T11:30:08;13.33;;;2.53;;
53833;SDS011;39735;51.432;5.482;2023-06-24T11:32:37;4.32;;;3.88;;
53833;SDS011;39735;51.432;5.482;2023-06-24T11:35:05;3.00;;;2.42;;
53833;SDS011;39735;51.432;5.482;2023-06-24T11:37:31;4.75;;;2.35;;
53833;SDS011;39735;51.432;5.482;2023-06-24T11:40:03;2.58;;;2.08;;
53833;SDS011;39735;51.432;5.482;2023-06-24T11:42:30;1.92;;;1.92;;
53833;SDS011;39735;51.432;5.482;2023-06-24T11:44:59;3.05;;;2.85;;
53833;SDS011;39735;51.432;5.482;2023-06-24T11:47:24;30.17;;;3.60;;
53833;SDS011;39735;51.432;5.482;2023-06-24T11:49:50;3.30;;;2.92;;
53833;SDS011;39735;51.432;5.482;2023-06-24T11:52:15;3.22;;;3.05;;
53833;SDS011;39735;51.432;5.482;2023-06-24T11:54:41;8.18;;;2.50;;
53833;SDS011;39735;51.432;5.482;2023-06-24T11:57:07;3.33;;;2.47;;
53833;SDS011;39735;51.432;5.482;2023-06-24T11:59:33;2.92;;;2.70;;
53833;SDS011;39735;51.432;5.482;2023-06-24T12:01:58;4.53;;;3.87;;
53833;SDS011;39735;51.432;5.482;2023-06-24T12:04:31;10.02;;;2.70;;
53833;SDS011;39735;51.432;5.482;2023-06-24T12:06:57;3.80;;;2.47;;
53833;SDS011;39735;51.432;5.482;2023-06-24T12:09:23;5.32;;;2.60;;
53833;SDS011;39735;51.432;5.482;2023-06-24T12:11:48;6.72;;;2.40;;
53833;SDS011;39735;51.432;5.482;2023-06-24T12:14:14;4.75;;;3.25;;
53833;SDS011;39735;51.432;5.482;2023-06-24T12:16:39;3.77;;;2.77;;
53833;SDS011;39735;51.432;5.482;2023-06-24T12:19:05;3.47;;;3.25;;
53833;SDS011;39735;51.432;5.482;2023-06-24T12:21:30;3.90;;;3.50;;
53833;SDS011;39735;51.432;5.482;2023-06-24T12:23:56;2.47;;;2.38;;
53833;SDS011;39735;51.432;5.482;2023-06-24T12:26:21;14.53;;;3.40;;
53833;SDS011;39735;51.432;5.482;2023-06-24T12:28:47;4.37;;;3.37;;
53833;SDS011;39735;51.432;5.482;2023-06-24T12:31:12;2.90;;;2.70;;
53833;SDS011;39735;51.432;5.482;2023-06-24T12:33:37;2.47;;;2.38;;
53833;SDS011;39735;51.432;5.482;2023-06-24T12:36:02;3.88;;;2.90;;
53833;SDS011;39735;51.432;5.482;2023-06-24T12:38:28;11.48;;;3.00;;
53833;SDS011;39735;51.432;5.482;2023-06-24T12:40:53;3.27;;;2.80;;
53833;SDS011;39735;51.432;5.482;2023-06-24T12:43:18;3.83;;;3.53;;
53833;SDS011;39735;51.432;5.482;2023-06-24T12:45:43;3.40;;;3.30;;
53833;SDS011;39735;51.432;5.482;2023-06-24T12:48:09;5.78;;;3.08;;
53833;SDS011;39735;51.432;5.482;2023-06-24T12:50:35;6.45;;;2.55;;
53833;SDS011;39735;51.432;5.482;2023-06-24T12:53:00;4.47;;;2.50;;
53833;SDS011;39735;51.432;5.482;2023-06-24T12:55:25;2.40;;;2.25;;
53833;SDS011;39735;51.432;5.482;2023-06-24T12:57:50;8.47;;;2.77;;
53833;SDS011;39735;51.432;5.482;2023-06-24T13:00:17;5.27;;;2.77;;
53833;SDS011;39735;51.432;5.482;2023-06-24T13:02:44;3.05;;;2.75;;
53833;SDS011;39735;51.432;5.482;2023-06-24T13:05:09;12.07;;;3.10;;
53833;SDS011;39735;51.432;5.482;2023-06-24T13:07:34;4.73;;;4.23;;
53833;SDS011;39735;51.432;5.482;2023-06-24T13:10:00;4.15;;;3.45;;
53833;SDS011;39735;51.432;5.482;2023-06-24T13:12:26;3.95;;;2.50;;
53833;SDS011;39735;51.432;5.482;2023-06-24T13:14:51;4.07;;;2.70;;
53833;SDS011;39735;51.432;5.482;2023-06-24T13:17:16;3.20;;;2.90;;
53833;SDS011;39735;51.432;5.482;2023-06-24T13:19:41;10.13;;;3.40;;
53833;SDS011;39735;51.432;5.482;2023-06-24T13:22:07;11.30;;;3.80;;
53833;SDS011;39735;51.432;5.482;2023-06-24T13:24:32;3.67;;;3.37;;
53833;SDS011;39735;51.432;5.482;2023-06-24T13:26:57;4.80;;;2.83;;
53833;SDS011;39735;51.432;5.482;2023-06-24T13:29:22;13.10;;;3.10;;
53833;SDS011;39735;51.432;5.482;2023-06-24T13:31:48;2.97;;;2.72;;
53833;SDS011;39735;51.432;5.482;2023-06-24T13:34:13;7.30;;;2.87;;
53833;SDS011;39735;51.432;5.482;2023-06-24T13:36:38;4.78;;;2.50;;
53833;SDS011;39735;51.432;5.482;2023-06-24T13:39:04;10.13;;;2.95;;
53833;SDS011;39735;51.432;5.482;2023-06-24T13:41:29;5.40;;;2.83;;
53833;SDS011;39735;51.432;5.482;2023-06-24T13:43:57;3.03;;;2.72;;
53833;SDS011;39735;51.432;5.482;2023-06-24T13:46:22;4.90;;;4.13;;
53833;SDS011;39735;51.432;5.482;2023-06-24T13:48:48;3.75;;;3.00;;
53833;SDS011;39735;51.432;5.482;2023-06-24T13:51:14;9.07;;;3.15;;
53833;SDS011;39735;51.432;5.482;2023-06-24T13:53:40;8.05;;;2.88;;
53833;SDS011;39735;51.432;5.482;2023-06-24T13:56:05;5.80;;;2.92;;
53833;SDS011;39735;51.432;5.482;2023-06-24T13:58:30;2.72;;;2.60;;
53833;SDS011;39735;51.432;5.482;2023-06-24T14:00:55;5.67;;;3.10;;
53833;SDS011;39735;51.432;5.482;2023-06-24T14:03:21;21.57;;;3.37;;
53833;SDS011;39735;51.432;5.482;2023-06-24T14:05:46;3.83;;;2.77;;
53833;SDS011;39735;51.432;5.482;2023-06-24T14:08:11;4.07;;;3.73;;
53833;SDS011;39735;51.432;5.482;2023-06-24T14:10:36;2.70;;;2.47;;
53833;SDS011;39735;51.432;5.482;2023-06-24T14:13:02;3.00;;;2.37;;
53833;SDS011;39735;51.432;5.482;2023-06-24T14:15:27;12.00;;;3.50;;
53833;SDS011;39735;51.432;5.482;2023-06-24T14:17:52;2.90;;;2.70;;
53833;SDS011;39735;51.432;5.482;2023-06-24T14:20:17;6.87;;;3.13;;
53833;SDS011;39735;51.432;5.482;2023-06-24T14:22:42;11.03;;;2.23;;
53833;SDS011;39735;51.432;5.482;2023-06-24T14:25:08;4.95;;;3.05;;
53833;SDS011;39735;51.432;5.482;2023-06-24T14:27:33;2.47;;;2.25;;
53833;SDS011;39735;51.432;5.482;2023-06-24T14:29:58;2.87;;;2.67;;
53833;SDS011;39735;51.432;5.482;2023-06-24T14:32:24;16.67;;;4.40;;
53833;SDS011;39735;51.432;5.482;2023-06-24T14:34:49;9.93;;;2.53;;
53833;SDS011;39735;51.432;5.482;2023-06-24T14:37:14;9.90;;;2.97;;
53833;SDS011;39735;51.432;5.482;2023-06-24T14:39:40;2.95;;;2.47;;
53833;SDS011;39735;51.432;5.482;2023-06-24T14:42:05;5.88;;;3.83;;
53833;SDS011;39735;51.432;5.482;2023-06-24T14:44:30;4.10;;;2.72;;